Time;durP1;ratioP1;P1;durP2;ratioP2;P2;SDS_P1;SDS_P2;PMS_P1;PMS_P2;Temp;Humidity;BMP_temperature;BMP_pressure;BME280_temperature;BME280_humidity;BME280_pressure;Samples;Min_cycle;Max_cycle;Signal;HPM_P1;HPM_P2
2022/10/19 00:01:00;;;;;;;0.47;0.47;;;;;;;5.50;91.56;101545.78;5126371;28;20110;-77
2022/10/19 00:03:25;;;;;;;0.50;0.50;;;;;;;5.37;91.57;101529.94;5126273;28;20024;-77
2022/10/19 00:05:50;;;;;;;0.50;0.50;;;;;;;5.43;91.16;101552.47;5108216;28;20024;-78
2022/10/19 00:08:17;;;;;;;0.40;0.40;;;;;;;5.39;91.18;101548.91;5107699;28;20030;-78
2022/10/19 00:10:42;;;;;;;0.50;0.50;;;;;;;5.32;90.98;101547.81;5126262;28;20023;-77
2022/10/19 00:13:07;;;;;;;0.40;0.40;;;;;;;5.38;91.06;101562.63;5107825;28;20417;-77
2022/10/19 00:15:37;;;;;;;0.50;0.50;;;;;;;5.32;91.05;101558.13;5126341;28;20022;-75
2022/10/19 00:18:02;;;;;;;0.50;0.50;;;;;;;5.31;90.90;101563.22;5107751;28;20016;-78
2022/10/19 00:20:28;;;;;;;0.50;0.50;;;;;;;5.23;91.02;101555.25;5107408;28;20027;-77
2022/10/19 00:22:53;;;;;;;0.40;0.40;;;;;;;5.24;90.75;101569.88;5125882;28;20074;-77
2022/10/19 00:25:18;;;;;;;0.40;0.40;;;;;;;5.24;90.89;101584.47;5107440;28;20024;-77
2022/10/19 00:27:44;;;;;;;0.40;0.40;;;;;;;5.21;90.99;101591.25;5107502;28;20031;-78
2022/10/19 00:30:09;;;;;;;0.50;0.50;;;;;;;5.20;90.97;101591.22;5107691;28;20023;-77
2022/10/19 00:32:34;;;;;;;0.40;0.40;;;;;;;5.18;90.95;101580.84;5126078;28;20023;-78
2022/10/19 00:35:00;;;;;;;0.50;0.50;;;;;;;5.18;90.82;101579.97;5107140;28;20490;-78
2022/10/19 00:37:26;;;;;;;0.50;0.50;;;;;;;5.06;90.84;101583.88;5107639;28;20047;-78
2022/10/19 00:39:51;;;;;;;0.43;0.43;;;;;;;5.14;91.06;101607.34;5125974;28;20106;-76
2022/10/19 00:42:17;;;;;;;0.50;0.50;;;;;;;5.11;90.85;101602.09;5125672;28;20106;-78
2022/10/19 00:45:02;;;;;;;1.23;1.23;;;;;;;5.09;90.93;101606.31;5125954;28;20042;-77
2022/10/19 00:47:29;;;;;;;0.50;0.50;;;;;;;5.07;91.10;101613.09;5106588;28;20053;-76
2022/10/19 00:49:56;;;;;;;0.50;0.50;;;;;;;5.04;90.99;101613.88;5107139;28;20048;-77
2022/10/19 00:52:24;;;;;;;0.50;0.50;;;;;;;5.00;90.95;101609.41;5107678;28;20053;-76
2022/10/19 00:54:52;;;;;;;0.50;0.50;;;;;;;4.99;91.08;101611.94;5107347;28;20024;-77
2022/10/19 00:57:18;;;;;;;1.25;1.25;;;;;;;4.99;91.07;101624.81;5107261;28;20024;-77
2022/10/19 00:59:46;;;;;;;0.47;0.47;;;;;;;4.93;91.19;101621.22;5125694;28;20032;-76
2022/10/19 01:02:12;;;;;;;0.40;0.40;;;;;;;4.92;91.07;101614.31;5125798;28;20039;-77
2022/10/19 01:04:43;;;;;;;0.50;0.50;;;;;;;4.87;91.12;101615.88;5107123;28;20027;-76
2022/10/19 01:07:08;;;;;;;0.55;0.55;;;;;;;4.89;91.05;101621.06;5107124;28;20030;-77
2022/10/19 01:09:34;;;;;;;0.50;0.50;;;;;;;4.89;91.00;101626.22;5125677;28;20028;-77
2022/10/19 01:12:30;;;;;;;0.50;0.50;;;;;;;4.83;91.01;101620.03;5107216;28;20023;-77
2022/10/19 01:15:21;;;;;;;0.45;0.45;;;;;;;4.86;91.00;101631.25;5107520;28;20485;-77
2022/10/19 01:17:53;;;;;;;0.60;0.60;;;;;;;4.81;91.07;101631.06;5125900;28;20047;-77
2022/10/19 01:20:46;;;;;;;0.50;0.50;;;;;;;4.79;91.08;101643.88;5125480;28;20033;-78
2022/10/19 01:23:23;;;;;;;0.40;0.40;;;;;;;4.76;91.25;101637.78;5125635;28;20039;-78
2022/10/19 01:26:02;;;;;;;0.50;0.50;;;;;;;4.69;90.97;101631.53;5125424;28;20032;-78
2022/10/19 01:28:34;;;;;;;0.50;0.50;;;;;;;4.71;90.95;101638.47;5125381;28;20024;-77
2022/10/19 01:31:15;;;;;;;0.60;0.60;;;;;;;4.71;91.12;101645.31;5125554;28;20023;-78
2022/10/19 01:33:46;;;;;;;0.60;0.60;;;;;;;4.68;91.26;101650.38;5125474;28;20028;-78
2022/10/19 01:36:22;;;;;;;0.50;0.50;;;;;;;4.67;91.16;101644.34;5125245;28;20028;-78
2022/10/19 01:38:47;;;;;;;0.50;0.50;;;;;;;4.66;90.96;101644.28;5129051;28;20016;-78
2022/10/19 01:41:28;;;;;;;0.45;0.45;;;;;;;4.61;91.33;101638.97;5129453;28;20083;-77
2022/10/19 01:44:03;;;;;;;0.45;0.45;;;;;;;4.58;91.16;101632.00;5129284;28;20087;-77
2022/10/19 01:46:40;;;;;;;0.50;0.50;;;;;;;4.59;91.20;101640.59;5129000;28;20026;-77
2022/10/19 01:49:22;;;;;;;0.50;0.50;;;;;;;4.59;91.09;101643.16;5110474;28;20107;-78
2022/10/19 01:51:57;;;;;;;0.40;0.40;;;;;;;4.58;91.13;101644.00;5110582;28;20034;-77
2022/10/19 01:54:26;;;;;;;0.50;0.50;;;;;;;4.52;91.25;101633.50;5094398;28;20118;-77
2022/10/19 01:56:53;;;;;;;0.50;0.50;;;;;;;4.47;91.17;101635.91;5128862;28;20107;-77
2022/10/19 01:59:21;;;;;;;0.50;0.50;;;;;;;4.51;91.06;101639.44;5128730;28;20027;-78
2022/10/19 02:01:49;;;;;;;0.40;0.40;;;;;;;4.46;91.13;101632.44;5110341;28;20111;-77
2022/10/19 02:04:19;;;;;;;0.80;0.80;;;;;;;4.52;91.12;101646.34;5128343;28;20027;-78
2022/10/19 02:06:44;;;;;;;0.50;0.50;;;;;;;4.42;91.08;101635.72;5128773;28;20041;-77
2022/10/19 02:09:16;;;;;;;0.40;0.40;;;;;;;4.44;90.87;101639.22;5110188;28;20281;-76
2022/10/19 02:11:43;;;;;;;;;;;;;;;4.46;90.91;101650.44;5110761;28;20049;-77
2022/10/19 02:14:14;;;;;;;0.50;0.50;;;;;;;4.43;91.06;101645.19;5109950;28;19908;-77
2022/10/19 02:17:02;;;;;;;0.47;0.47;;;;;;;4.42;90.97;101653.72;5109994;28;20027;-77
2022/10/19 02:19:27;;;;;;;0.40;0.40;;;;;;;4.32;90.91;101637.09;5109407;28;20394;-77
2022/10/19 02:21:55;;;;;;;0.50;0.50;;;;;;;4.33;90.90;101655.94;5109705;28;20043;-76
2022/10/19 02:24:20;;;;;;;0.40;0.40;;;;;;;4.33;90.99;101663.66;5128226;28;20023;-77
2022/10/19 02:26:46;;;;;;;0.50;0.50;;;;;;;4.23;90.88;101657.31;5109931;28;20024;-76
2022/10/19 02:29:14;;;;;;;0.50;0.50;;;;;;;4.27;90.96;101666.00;5109805;28;20042;-78
2022/10/19 02:31:39;;;;;;;0.50;0.50;;;;;;;4.23;91.08;101654.72;5128071;28;20024;-76
2022/10/19 02:34:05;;;;;;;0.50;0.50;;;;;;;4.25;91.00;101660.78;5109663;28;20080;-77
2022/10/19 02:36:30;;;;;;;0.50;0.50;;;;;;;4.21;91.13;101658.94;5109623;28;20039;-77
2022/10/19 02:38:56;;;;;;;0.50;0.50;;;;;;;4.22;90.97;101669.28;5109641;28;20486;-76
2022/10/19 02:41:37;;;;;;;0.50;0.50;;;;;;;4.22;90.84;101664.13;5128048;28;20031;-76
2022/10/19 02:44:21;;;;;;;0.50;0.50;;;;;;;4.20;90.89;101675.19;5109298;28;20101;-77
2022/10/19 02:46:54;;;;;;;0.50;0.50;;;;;;;4.18;90.56;101679.38;5109409;28;20024;-76
2022/10/19 02:49:20;;;;;;;0.38;0.38;;;;;;;4.14;90.62;101674.94;5127635;28;20031;-77
2022/10/19 02:52:07;;;;;;;0.50;0.50;;;;;;;4.14;90.58;101683.50;5109654;28;20038;-78
2022/10/19 02:54:33;;;;;;;0.40;0.40;;;;;;;4.11;90.55;101673.13;5127630;28;20028;-75
2022/10/19 02:56:58;;;;;;;0.50;0.50;;;;;;;4.07;90.22;101673.81;5127816;28;20100;-76
2022/10/19 02:59:24;;;;;;;0.40;0.40;;;;;;;4.11;90.53;101687.66;5109043;28;20443;-77
2022/10/19 03:01:50;;;;;;;0.50;0.50;;;;;;;4.01;90.57;101683.88;5109233;28;20020;-78
2022/10/19 03:04:15;;;;;;;0.50;0.50;;;;;;;4.00;90.43;101687.22;5127190;28;20034;-77
2022/10/19 03:06:41;;;;;;;0.40;0.40;;;;;;;3.93;90.49;101694.69;5127718;28;20094;-77
2022/10/19 03:09:06;;;;;;;0.50;0.50;;;;;;;3.96;90.54;101702.53;5127292;28;20024;-77
2022/10/19 03:11:32;;;;;;;0.40;0.40;;;;;;;3.83;90.51;101698.59;5127329;28;20035;-78
2022/10/19 03:13:58;;;;;;;0.50;0.50;;;;;;;3.81;90.29;101689.06;5127316;28;20023;-77
2022/10/19 03:16:23;;;;;;;0.40;0.40;;;;;;;3.82;90.45;101690.81;5109011;28;20024;-78
2022/10/19 03:18:49;;;;;;;0.50;0.50;;;;;;;3.81;90.42;101694.22;5108752;28;20024;-78
2022/10/19 03:21:15;;;;;;;0.50;0.50;;;;;;;3.79;90.39;101703.53;5127026;28;20099;-77
2022/10/19 03:23:40;;;;;;;0.50;0.50;;;;;;;3.75;90.54;101706.81;5127145;28;20035;-78
2022/10/19 03:26:07;;;;;;;0.40;0.40;;;;;;;3.70;90.21;101707.50;5127100;28;20019;-77
2022/10/19 03:28:33;;;;;;;0.40;0.40;;;;;;;3.63;90.25;101699.47;5126841;28;20037;-77
2022/10/19 03:30:58;;;;;;;0.50;0.50;;;;;;;3.54;90.05;101707.69;5127037;28;20020;-78
2022/10/19 03:33:25;;;;;;;0.50;0.50;;;;;;;3.54;89.90;101715.38;5108514;28;20020;-78
2022/10/19 03:36:10;;;;;;;0.50;0.50;;;;;;;3.45;89.96;101715.88;5108239;28;20045;-78
2022/10/19 03:38:36;;;;;;;0.50;0.50;;;;;;;3.40;89.88;101727.66;5126574;28;20051;-77
2022/10/19 03:41:05;;;;;;;0.50;0.50;;;;;;;3.29;89.91;101715.22;5108548;28;20020;-77
2022/10/19 03:43:30;;;;;;;0.50;0.50;;;;;;;3.24;90.20;101705.56;5126748;28;20027;-77
2022/10/19 03:45:55;;;;;;;0.47;0.47;;;;;;;3.32;90.14;101732.44;5091373;28;20514;-79
2022/10/19 03:48:21;;;;;;;0.50;0.50;;;;;;;3.23;90.44;101714.94;5126485;28;20076;-78
2022/10/19 03:50:46;;;;;;;0.40;0.40;;;;;;;3.27;90.51;101726.25;5108142;28;20083;-79
2022/10/19 03:53:11;;;;;;;0.50;0.50;;;;;;;3.31;90.55;101746.97;5108172;28;20098;-78
2022/10/19 03:55:37;;;;;;;0.50;0.50;;;;;;;3.29;90.39;101730.63;5108379;28;20030;-79
2022/10/19 03:58:02;;;;;;;0.50;0.50;;;;;;;3.35;90.64;101735.16;5126276;28;20038;-78
2022/10/19 04:00:27;;;;;;;0.50;0.50;;;;;;;3.28;90.86;101720.28;5125955;28;20139;-79
2022/10/19 04:02:53;;;;;;;0.50;0.50;;;;;;;3.41;91.01;101742.22;5107872;28;20466;-77
2022/10/19 04:05:18;;;;;;;0.40;0.40;;;;;;;3.38;90.88;101735.28;5107572;28;20026;-77
2022/10/19 04:07:43;;;;;;;0.50;0.50;;;;;;;3.41;90.92;101739.66;5126484;28;20609;-77
2022/10/19 04:10:09;;;;;;;0.50;0.50;;;;;;;3.39;90.84;101743.84;5126385;28;20062;-77
2022/10/19 04:12:34;;;;;;;0.50;0.50;;;;;;;3.43;90.94;101744.06;5107732;28;20023;-71
2022/10/19 04:14:59;;;;;;;0.50;0.50;;;;;;;3.38;90.81;101749.78;5126367;28;20020;-79
2022/10/19 04:17:25;;;;;;;0.50;0.50;;;;;;;3.40;90.73;101764.47;5126075;28;20114;-77
2022/10/19 04:19:50;;;;;;;0.50;0.50;;;;;;;3.27;90.69;101749.34;5107505;28;20051;-78
2022/10/19 04:22:15;;;;;;;0.50;0.50;;;;;;;3.34;90.60;101769.31;5125873;28;20035;-78
2022/10/19 04:24:41;;;;;;;0.50;0.50;;;;;;;3.28;90.75;101763.91;5107434;28;20023;-78
2022/10/19 04:27:06;;;;;;;0.50;0.50;;;;;;;3.11;90.81;101761.50;5126005;28;20030;-78
2022/10/19 04:29:35;;;;;;;0.50;0.50;;;;;;;3.19;90.38;101774.66;5107776;28;20043;-78
2022/10/19 04:32:03;;;;;;;0.50;0.50;;;;;;;3.07;90.57;101763.06;5125823;28;20032;-79
2022/10/19 04:34:28;;;;;;;0.50;0.50;;;;;;;3.10;90.45;101767.44;5107410;28;20015;-77
2022/10/19 04:36:53;;;;;;;0.50;0.50;;;;;;;3.10;90.49;101772.56;5125976;28;20019;-76
2022/10/19 04:39:19;;;;;;;0.50;0.50;;;;;;;3.12;90.68;101777.75;5125806;28;20023;-73
2022/10/19 04:41:44;;;;;;;0.50;0.50;;;;;;;3.03;90.82;101770.53;5125822;28;20364;-78
2022/10/19 04:44:09;;;;;;;1.05;1.05;;;;;;;3.03;90.85;101781.69;5107380;28;20020;-78
2022/10/19 04:46:36;;;;;;;0.50;0.50;;;;;;;3.05;90.73;101781.75;5125672;28;20368;-79
2022/10/19 04:49:03;;;;;;;4.30;3.85;;;;;;;3.04;90.88;101779.97;5107276;28;20030;-80
2022/10/19 04:51:28;;;;;;;0.50;0.50;;;;;;;2.99;90.83;101771.22;5107567;28;20020;-79
2022/10/19 04:53:57;;;;;;;0.50;0.50;;;;;;;3.02;90.86;101766.22;5125732;28;20037;-78
2022/10/19 04:56:25;;;;;;;0.50;0.50;;;;;;;3.02;90.93;101769.66;5107495;28;20023;-79
2022/10/19 04:58:54;;;;;;;0.50;0.50;;;;;;;3.04;91.02;101769.72;5107270;28;20039;-78
2022/10/19 05:01:24;;;;;;;0.50;0.50;;;;;;;3.01;90.78;101782.41;5107658;28;20023;-78
2022/10/19 05:03:55;;;;;;;0.50;0.50;;;;;;;2.99;90.91;101774.66;5107295;28;20023;-79
2022/10/19 05:06:21;;;;;;;0.50;0.50;;;;;;;3.01;90.87;101775.59;5107257;28;20474;-79
2022/10/19 05:08:48;;;;;;;0.50;0.50;;;;;;;3.02;90.89;101784.19;5107284;28;20062;-79
2022/10/19 05:11:15;;;;;;;0.50;0.50;;;;;;;2.95;90.97;101776.22;5107392;28;20045;-79
2022/10/19 05:13:41;;;;;;;0.50;0.50;;;;;;;3.00;91.04;101784.13;5129450;28;20031;-80
2022/10/19 05:16:11;;;;;;;0.50;0.50;;;;;;;2.97;91.03;101782.28;5129391;28;20083;-77
2022/10/19 05:18:37;;;;;;;0.50;0.50;;;;;;;3.02;90.91;101786.75;5111242;28;20031;-72
2022/10/19 05:21:09;;;;;;;0.50;0.50;;;;;;;3.03;90.91;101788.50;5128985;28;20046;-73
2022/10/19 05:23:35;;;;;;;0.60;0.60;;;;;;;3.01;90.88;101802.94;5129667;28;20051;-72
2022/10/19 05:26:08;;;;;;;0.50;0.50;;;;;;;3.02;90.76;101803.00;5129681;28;20036;-69
2022/10/19 05:28:34;;;;;;;0.50;0.50;;;;;;;3.00;90.87;101803.75;5110902;28;20026;-70
2022/10/19 05:31:13;;;;;;;0.50;0.50;;;;;;;2.99;90.96;101804.59;5110859;28;20044;-71
2022/10/19 05:33:40;;;;;;;0.47;0.47;;;;;;;2.93;90.84;101800.91;5111055;28;20020;-73
2022/10/19 05:36:33;;;;;;;0.50;0.50;;;;;;;2.91;90.89;101805.09;5129060;28;20087;-74
2022/10/19 05:39:00;;;;;;;0.50;0.50;;;;;;;2.90;90.95;101811.03;5110762;28;20092;-74
2022/10/19 05:41:26;;;;;;;0.50;0.50;;;;;;;2.87;90.95;101802.31;5110604;28;20034;-74
2022/10/19 05:43:54;;;;;;;0.50;0.50;;;;;;;2.87;90.90;101804.88;5129109;28;20098;-74
2022/10/19 05:46:20;;;;;;;0.50;0.50;;;;;;;2.89;90.98;101816.97;5128941;28;20030;-74
2022/10/19 05:48:45;;;;;;;0.60;0.60;;;;;;;2.85;90.94;101810.84;5128753;28;20024;-76
2022/10/19 05:51:14;;;;;;;0.40;0.40;;;;;;;2.85;90.92;101815.06;5128922;28;20019;-74
2022/10/19 05:53:40;;;;;;;0.50;0.50;;;;;;;2.83;91.02;101814.13;5128921;28;20020;-75
2022/10/19 05:56:07;;;;;;;0.50;0.50;;;;;;;2.76;91.05;101810.41;5128913;28;20031;-75
2022/10/19 05:58:34;;;;;;;11.35;3.17;;;;;;;2.80;90.97;101816.53;5110376;28;20085;-73
2022/10/19 06:01:00;;;;;;;1.23;1.13;;;;;;;2.79;90.97;101812.22;5128860;28;20023;-73
2022/10/19 06:03:27;;;;;;;2.90;2.63;;;;;;;2.78;91.05;101818.16;5128579;28;20020;-74
2022/10/19 06:05:53;;;;;;;0.50;0.50;;;;;;;2.84;91.13;101823.59;5128504;28;20076;-74
2022/10/19 06:08:20;;;;;;;0.40;0.40;;;;;;;2.86;91.15;101827.06;5127330;28;20031;-74
2022/10/19 06:10:46;;;;;;;0.60;0.60;;;;;;;2.88;91.18;101835.72;5109590;28;20024;-74
2022/10/19 06:13:13;;;;;;;0.50;0.50;;;;;;;2.82;91.23;101832.88;5110240;28;20459;-75
2022/10/19 06:15:39;;;;;;;0.40;0.40;;;;;;;2.85;91.15;101830.47;5128214;28;20036;-75
2022/10/19 06:18:11;;;;;;;0.40;0.40;;;;;;;2.89;90.96;101836.63;5128529;28;20045;-74
2022/10/19 06:20:39;;;;;;;0.50;0.50;;;;;;;2.82;90.99;101832.88;5127023;28;20030;-74
2022/10/19 06:23:05;;;;;;;0.50;0.50;;;;;;;2.83;90.79;101847.47;5109568;28;20024;-74
2022/10/19 06:25:31;;;;;;;0.52;0.52;;;;;;;2.82;90.57;101843.16;5110032;28;20054;-73
2022/10/19 06:27:58;;;;;;;0.50;0.50;;;;;;;2.83;90.68;101837.19;5109890;28;20020;-74
2022/10/19 06:30:23;;;;;;;0.50;0.50;;;;;;;2.93;91.13;101853.91;5109731;28;20111;-74
2022/10/19 06:32:49;;;;;;;0.50;0.50;;;;;;;2.92;91.29;101855.63;5128299;28;20028;-74
2022/10/19 06:35:15;;;;;;;0.50;0.50;;;;;;;3.02;91.33;101863.72;5109701;28;20026;-74
2022/10/19 06:37:40;;;;;;;0.40;0.40;;;;;;;3.01;91.56;101860.28;5109658;28;20478;-74
2022/10/19 06:40:06;;;;;;;0.50;0.50;;;;;;;3.12;91.44;101867.56;5109722;28;20023;-74
2022/10/19 06:42:32;;;;;;;0.50;0.50;;;;;;;3.32;92.00;101868.50;5109604;28;20023;-75
2022/10/19 06:44:58;;;;;;;0.50;0.50;;;;;;;3.76;92.60;101863.56;5127916;28;20111;-74
2022/10/19 06:47:29;;;;;;;0.50;0.50;;;;;;;4.35;92.41;101857.44;5127898;28;20023;-73
2022/10/19 06:49:55;;;;;;;0.80;0.80;;;;;;;5.05;91.07;101862.72;5109306;28;20055;-74
2022/10/19 06:52:20;;;;;;;0.40;0.40;;;;;;;5.92;90.28;101861.50;5107504;28;20036;-74
2022/10/19 06:54:46;;;;;;;1.48;1.40;;;;;;;6.74;91.17;101865.03;5127720;28;20022;-73
2022/10/19 06:57:11;;;;;;;0.50;0.50;;;;;;;7.40;90.40;101870.41;5127754;28;20027;-73
2022/10/19 06:59:36;;;;;;;0.50;0.50;;;;;;;7.84;90.74;101862.13;5109475;28;20030;-73
2022/10/19 07:02:02;;;;;;;0.40;0.40;;;;;;;8.19;90.31;101862.13;5109476;28;20081;-73
2022/10/19 07:04:28;;;;;;;0.40;0.40;;;;;;;8.45;89.82;101873.13;5109113;28;20031;-73
2022/10/19 07:06:53;;;;;;;0.40;0.40;;;;;;;8.59;87.90;101879.53;5127639;28;20019;-74
2022/10/19 07:09:18;;;;;;;0.40;0.40;;;;;;;8.93;84.53;101877.69;5127576;28;20059;-73
2022/10/19 07:11:44;;;;;;;0.40;0.40;;;;;;;9.52;84.16;101872.00;5127557;28;20031;-72
2022/10/19 07:14:10;;;;;;;1.42;1.33;;;;;;;9.88;87.33;101885.63;5127571;28;20019;-73
2022/10/19 07:16:35;;;;;;;1.95;1.85;;;;;;;10.05;84.83;101883.31;5127455;28;20024;-73
2022/10/19 07:19:00;;;;;;;0.40;0.40;;;;;;;10.40;85.58;101883.06;5127097;28;20027;-73
2022/10/19 07:21:26;;;;;;;0.40;0.40;;;;;;;10.70;87.70;101880.06;5127253;28;20046;-74
2022/10/19 07:23:51;;;;;;;1.15;1.05;;;;;;;10.78;89.62;101874.13;5127195;28;20024;-74
2022/10/19 07:26:19;;;;;;;0.40;0.40;;;;;;;10.80;90.07;101879.34;5126120;28;20533;-74
2022/10/19 07:28:46;;;;;;;0.40;0.40;;;;;;;10.85;90.77;101885.50;5125743;28;20023;-74
2022/10/19 07:31:16;;;;;;;0.40;0.40;;;;;;;10.76;89.98;101891.44;5127045;28;20027;-73
2022/10/19 07:33:42;;;;;;;0.40;0.40;;;;;;;10.94;90.21;101889.06;5127202;28;20095;-73
2022/10/19 07:36:09;;;;;;;0.35;0.35;;;;;;;11.17;89.69;101886.78;5126313;28;20027;-74
2022/10/19 07:38:35;;;;;;;0.40;0.40;;;;;;;11.35;88.58;101887.88;5127023;28;20042;-73
2022/10/19 07:41:08;;;;;;;0.40;0.40;;;;;;;11.83;84.71;101895.34;5126801;28;20110;-74
2022/10/19 07:43:34;;;;;;;0.40;0.40;;;;;;;11.92;84.25;101894.56;5126898;28;20030;-73
2022/10/19 07:46:01;;;;;;;1.48;1.38;;;;;;;12.09;83.63;101899.97;5126808;28;20023;-74
2022/10/19 07:48:27;;;;;;;0.30;0.30;;;;;;;12.50;83.78;101901.16;5126459;28;20034;-74
2022/10/19 07:50:53;;;;;;;0.40;0.40;;;;;;;12.93;81.94;101897.97;5126601;28;20110;-73
2022/10/19 07:53:18;;;;;;;0.40;0.40;;;;;;;13.09;80.75;101901.53;5126820;28;20088;-74
2022/10/19 07:55:44;;;;;;;0.30;0.30;;;;;;;13.41;78.35;101901.66;5126660;28;20031;-73
2022/10/19 07:58:09;;;;;;;0.40;0.40;;;;;;;13.81;76.81;101901.81;5108305;28;20106;-73
2022/10/19 08:00:34;;;;;;;0.32;0.32;;;;;;;13.99;73.06;101887.91;5126901;28;20027;-74
2022/10/19 08:03:00;;;;;;;0.40;0.40;;;;;;;14.73;73.32;101903.56;5126453;28;20050;-73
2022/10/19 08:05:25;;;;;;;0.30;0.30;;;;;;;14.83;70.88;101905.34;5108110;28;20047;-73
2022/10/19 08:07:50;;;;;;;0.30;0.30;;;;;;;15.08;73.78;101905.25;5126304;28;20397;-73
2022/10/19 08:10:16;;;;;;;0.30;0.30;;;;;;;15.29;73.49;101906.06;5108240;28;20034;-74
2022/10/19 08:12:41;;;;;;;0.30;0.30;;;;;;;15.49;72.09;101911.19;5108039;28;20023;-73
2022/10/19 08:15:07;;;;;;;0.30;0.30;;;;;;;15.44;70.85;101909.47;5126389;28;20058;-73
2022/10/19 08:17:36;;;;;;;0.30;0.30;;;;;;;15.18;70.59;101898.25;5107931;28;20027;-73
2022/10/19 08:20:03;;;;;;;0.30;0.30;;;;;;;15.15;70.94;101910.47;5107646;28;20019;-74
2022/10/19 08:22:28;;;;;;;0.30;0.30;;;;;;;15.57;72.26;101908.56;5126050;28;20070;-73
2022/10/19 08:24:54;;;;;;;0.30;0.30;;;;;;;15.82;71.27;101915.38;5107970;28;20035;-74
2022/10/19 08:27:19;;;;;;;0.30;0.30;;;;;;;15.95;70.84;101909.19;5126339;28;20027;-73
2022/10/19 08:29:44;;;;;;;0.30;0.30;;;;;;;15.91;66.10;101910.09;5126129;28;20024;-73
2022/10/19 08:32:10;;;;;;;0.30;0.30;;;;;;;16.03;62.55;101910.91;5126142;28;20028;-73
2022/10/19 08:34:35;;;;;;;0.30;0.30;;;;;;;15.79;62.72;101908.44;5125991;28;20020;-72
2022/10/19 08:37:02;;;;;;;0.30;0.30;;;;;;;16.39;67.18;101906.25;5107709;28;20025;-72
2022/10/19 08:39:27;;;;;;;0.20;0.20;;;;;;;16.92;66.96;101918.88;5125904;28;20035;-73
2022/10/19 08:41:56;;;;;;;0.30;0.30;;;;;;;17.26;65.92;101922.00;5125969;28;20027;-72
2022/10/19 08:44:33;;;;;;;0.30;0.30;;;;;;;17.47;61.55;101923.50;5107464;28;20373;-72
2022/10/19 08:47:20;;;;;;;0.30;0.30;;;;;;;17.74;57.71;101928.38;5130709;28;20023;-73
2022/10/19 08:49:46;;;;;;;0.20;0.20;;;;;;;17.97;63.90;101914.94;5132609;28;20015;-73
2022/10/19 08:52:16;;;;;;;0.20;0.20;;;;;;;18.07;60.66;101910.38;5132886;28;20045;-74
2022/10/19 08:55:00;;;;;;;0.20;0.20;;;;;;;18.07;53.54;101910.38;5132920;28;20015;-73
2022/10/19 08:57:38;;;;;;;0.30;0.30;;;;;;;18.15;61.64;101916.41;5132857;28;20039;-73
2022/10/19 09:00:14;;;;;;;0.20;0.20;;;;;;;17.94;57.64;101921.09;5132569;28;20029;-72
2022/10/19 09:02:39;;;;;;;0.20;0.20;;;;;;;18.00;59.46;101921.88;5114364;28;20051;-74
2022/10/19 09:05:31;;;;;;;0.20;0.20;;;;;;;18.02;54.61;101923.59;5132547;28;20493;-74
2022/10/19 09:07:58;;;;;;;0.20;0.20;;;;;;;18.28;60.75;101919.72;5029093;28;20053;-75
2022/10/19 09:10:31;;;;;;;0.20;0.20;;;;;;;18.58;59.42;101929.72;5029697;28;20042;-73
2022/10/19 09:12:57;;;;;;;0.20;0.20;;;;;;;18.82;57.41;101930.16;5029370;28;20026;-74
2022/10/19 09:15:33;;;;;;;0.20;0.20;;;;;;;18.76;48.66;101925.91;5012940;28;20524;-74
2022/10/19 09:18:00;;;;;;;0.20;0.20;;;;;;;18.64;54.09;101928.75;5029272;28;20030;-74
2022/10/19 09:20:32;;;;;;;0.20;0.20;;;;;;;18.40;52.00;101923.03;5029450;28;20041;-73
2022/10/19 09:23:17;;;;;;;;;;;;;;;18.37;45.54;101917.84;5013520;28;20045;-74
2022/10/19 09:25:43;;;;;;;0.20;0.20;;;;;;;19.06;55.68;101923.56;5029549;28;19916;-73
2022/10/19 09:28:49;;;;;;;0.20;0.20;;;;;;;19.10;48.08;101919.16;5029323;28;20057;-73
2022/10/19 09:31:38;;;;;;;0.20;0.20;;;;;;;19.25;52.30;101925.84;5015580;28;20026;-72
2022/10/19 09:34:15;;;;;;;0.20;0.20;;;;;;;19.46;47.55;101922.81;5029658;28;20022;-73
2022/10/19 09:36:45;;;;;;;0.20;0.20;;;;;;;20.28;54.86;101920.94;5012833;28;20026;-73
2022/10/19 09:39:12;;;;;;;0.20;0.20;;;;;;;20.78;54.73;101924.06;5029107;28;20093;-72
2022/10/19 09:41:52;;;;;;;0.20;0.20;;;;;;;21.70;57.26;101929.34;5029273;28;20391;-73
2022/10/19 09:44:18;;;;;;;0.20;0.20;;;;;;;22.06;57.78;101919.44;5036833;28;20099;-73
2022/10/19 09:47:15;;;;;;;0.20;0.20;;;;;;;22.37;43.57;101937.81;5097068;28;20080;-73
2022/10/19 09:49:44;;;;;;;0.20;0.20;;;;;;;23.51;51.19;101933.75;5113589;28;20038;-73
2022/10/19 09:52:38;;;;;;;0.10;0.10;;;;;;;24.21;44.89;101930.13;5113925;28;20027;-73
2022/10/19 09:55:05;;;;;;;0.20;0.20;;;;;;;24.60;48.45;101932.94;5132330;28;20079;-74
2022/10/19 09:57:30;;;;;;;0.20;0.20;;;;;;;24.95;46.95;101937.63;5111499;28;20024;-72
2022/10/19 09:59:56;;;;;;;0.30;0.30;;;;;;;25.22;44.14;101932.84;5110355;28;20482;-73
2022/10/19 10:02:30;;;;;;;0.20;0.20;;;;;;;25.06;44.70;101930.03;5127467;28;20420;-72
2022/10/19 10:05:12;;;;;;;0.20;0.20;;;;;;;24.59;39.35;101931.19;5128451;28;20024;-73
2022/10/19 10:07:38;;;;;;;0.20;0.20;;;;;;;24.99;44.72;101929.44;5128685;28;20031;-73
2022/10/19 10:10:21;;;;;;;0.38;0.38;;;;;;;25.53;38.27;101935.81;5128495;28;20023;-72
2022/10/19 10:12:47;;;;;;;0.20;0.20;;;;;;;25.77;43.71;101929.44;5128653;28;20106;-74
2022/10/19 10:15:20;;;;;;;0.13;0.13;;;;;;;25.12;37.94;101934.19;5128423;28;20101;-73
2022/10/19 10:17:48;;;;;;;0.20;0.20;;;;;;;24.38;42.97;101928.53;5128535;28;20024;-71
2022/10/19 10:20:26;;;;;;;0.20;0.20;;;;;;;23.84;39.33;101935.13;5128262;28;20058;-71
2022/10/19 10:23:03;;;;;;;0.20;0.20;;;;;;;23.52;42.49;101926.66;5110056;28;20040;-72
2022/10/19 10:25:35;;;;;;;0.20;0.20;;;;;;;22.73;40.27;101930.44;5128404;28;20023;-71
2022/10/19 10:28:18;;;;;;;0.20;0.20;;;;;;;22.24;42.18;101924.13;5109987;28;20023;-70
2022/10/19 10:30:45;;;;;;;0.20;0.20;;;;;;;21.97;42.65;101925.88;5128328;28;20063;-70
2022/10/19 10:33:25;;;;;;;0.20;0.20;;;;;;;21.67;45.99;101929.44;5110011;28;20017;-71
2022/10/19 10:35:56;;;;;;;0.30;0.30;;;;;;;21.66;44.98;101922.44;5109585;28;20068;-71
2022/10/19 10:38:29;;;;;;;5.57;4.10;;;;;;;21.81;39.08;101926.38;5109814;28;20031;-70
2022/10/19 10:41:11;;;;;;;0.20;0.20;;;;;;;22.54;45.39;101926.63;5128122;28;20026;-70
2022/10/19 10:43:48;;;;;;;;;;;;;;;22.89;45.57;101930.75;5128496;28;20054;-71
2022/10/19 10:46:18;;;;;;;0.20;0.20;;;;;;;22.93;44.30;101920.91;5109629;28;19912;-72
2022/10/19 10:48:52;;;;;;;0.20;0.20;;;;;;;23.02;43.87;101920.56;5109623;28;20114;-72
2022/10/19 10:51:36;;;;;;;0.15;0.15;;;;;;;23.39;41.59;101928.94;5127928;28;20027;-72
2022/10/19 10:54:21;;;;;;;0.20;0.20;;;;;;;22.99;41.54;101928.63;5128021;28;20108;-72
2022/10/19 10:57:01;;;;;;;0.20;0.20;;;;;;;22.51;38.67;101931.16;5127857;28;20505;-73
2022/10/19 10:59:32;;;;;;;0.20;0.20;;;;;;;22.38;39.86;101930.72;5127719;28;20106;-72
2022/10/19 11:02:29;;;;;;;0.20;0.20;;;;;;;22.88;36.55;101934.31;5127741;28;20023;-72
2022/10/19 11:05:09;;;;;;;0.20;0.20;;;;;;;23.00;37.00;101933.00;5127457;28;20020;-71
2022/10/19 11:07:37;;;;;;;0.20;0.20;;;;;;;22.74;39.81;101932.16;5127609;28;20084;-71
2022/10/19 11:10:12;;;;;;;0.55;0.55;;;;;;;22.83;37.79;101931.81;5126253;28;20048;-72
2022/10/19 11:12:42;;;;;;;0.20;0.20;;;;;;;22.86;37.43;101917.63;5127601;28;20073;-72
2022/10/19 11:15:18;;;;;;;0.20;0.20;;;;;;;23.17;37.49;101918.25;5127453;28;20028;-71
2022/10/19 11:17:57;;;;;;;0.20;0.20;;;;;;;23.35;41.78;101924.66;5127548;28;20119;-72
2022/10/19 11:20:28;;;;;;;0.20;0.20;;;;;;;22.70;40.07;101923.47;5127302;28;20027;-71
2022/10/19 11:23:15;;;;;;;0.20;0.20;;;;;;;22.40;38.46;101923.59;5127111;28;20103;-72
2022/10/19 11:26:09;;;;;;;0.20;0.20;;;;;;;22.40;41.75;101915.66;5127144;28;20046;-72
2022/10/19 11:28:59;;;;;;;0.20;0.20;;;;;;;20.72;41.24;101916.31;5127223;28;20027;-71
2022/10/19 11:31:33;;;;;;;0.20;0.20;;;;;;;18.89;44.38;101923.91;5126182;28;20027;-71
2022/10/19 11:34:18;;;;;;;0.22;0.22;;;;;;;16.90;44.67;101914.53;5126830;28;20030;-72
2022/10/19 11:36:58;;;;;;;0.30;0.30;;;;;;;15.38;44.03;101923.47;5127114;28;20019;-71
2022/10/19 11:39:27;;;;;;;0.30;0.30;;;;;;;14.36;46.13;101918.41;5108674;28;20046;-71
2022/10/19 11:42:13;;;;;;;0.30;0.30;;;;;;;13.58;47.98;101918.28;5126949;28;20019;-71
2022/10/19 11:44:53;;;;;;;0.30;0.30;;;;;;;12.95;49.96;101921.44;5126939;28;20030;-72